Time;durP1;ratioP1;P1;durP2;ratioP2;P2;SDS_P1;SDS_P2;PMS_P1;PMS_P2;Temp;Humidity;BMP_temperature;BMP_pressure;BME280_temperature;BME280_humidity;BME280_pressure;Samples;Min_cycle;Max_cycle;Signal;HPM_P1;HPM_P2
2023/12/13 00:00:00;;;;;;;65.90;25.90;;;;;;;-128.00;-1.00;-1.00;100125;1286;1004682;-31
2023/12/13 00:02:25;;;;;;;58.60;26.20;;;;;;;-128.00;-1.00;-1.00;100141;1283;1004217;-31
2023/12/13 00:04:51;;;;;;;70.90;27.60;;;;;;;-128.00;-1.00;-1.00;100131;1284;1003915;-32
2023/12/13 00:07:18;;;;;;;69.30;25.60;;;;;;;-128.00;-1.00;-1.00;100100;1287;1047249;-30
2023/12/13 00:09:44;;;;;;;69.80;26.70;;;;;;;-128.00;-1.00;-1.00;100220;1285;1003402;-31
2023/12/13 00:12:10;;;;;;;69.40;24.00;;;;;;;-128.00;-1.00;-1.00;100217;1285;1004350;-31
2023/12/13 00:14:36;;;;;;;81.20;30.60;;;;;;;-128.00;-1.00;-1.00;100161;1284;1003269;-33
2023/12/13 00:17:03;;;;;;;71.20;26.70;;;;;;;-128.00;-1.00;-1.00;100224;1287;1038526;-31
2023/12/13 00:19:29;;;;;;;53.90;22.50;;;;;;;-128.00;-1.00;-1.00;100167;1283;1003816;-30
2023/12/13 00:21:54;;;;;;;65.90;28.20;;;;;;;-128.00;-1.00;-1.00;100259;1285;1004581;-31
2023/12/13 00:24:20;;;;;;;;;;;;;;;-128.00;-1.00;-1.00;100183;1287;1003124;-31
2023/12/13 00:26:48;;;;;;;75.50;28.30;;;;;;;-128.00;-1.00;-1.00;100115;1283;1004411;-32
2023/12/13 00:29:14;;;;;;;63.50;24.80;;;;;;;-128.00;-1.00;-1.00;100187;1288;1039353;-30
2023/12/13 00:31:40;;;;;;;59.10;24.00;;;;;;;-128.00;-1.00;-1.00;100269;1287;1005416;-31
2023/12/13 00:34:06;;;;;;;65.40;25.90;;;;;;;-128.00;-1.00;-1.00;100162;1288;1003556;-31
2023/12/13 00:36:32;;;;;;;75.80;26.80;;;;;;;-128.00;-1.00;-1.00;100166;1287;1058879;-31
2023/12/13 00:38:58;;;;;;;60.40;25.50;;;;;;;-128.00;-1.00;-1.00;100214;1287;1003405;-31
2023/12/13 00:41:24;;;;;;;69.40;24.00;;;;;;;-128.00;-1.00;-1.00;100209;1285;1004370;-31
2023/12/13 00:43:50;;;;;;;63.80;25.10;;;;;;;-128.00;-1.00;-1.00;100144;1285;1002608;-31
2023/12/13 00:46:22;;;;;;;93.70;29.50;;;;;;;-128.00;-1.00;-1.00;100189;1285;1056194;-33
2023/12/13 00:48:49;;;;;;;77.20;27.50;;;;;;;-128.00;-1.00;-1.00;100148;1287;1059297;-32
2023/12/13 00:51:22;;;;;;;71.20;28.70;;;;;;;-128.00;-1.00;-1.00;100138;1287;1003304;-32
2023/12/13 00:53:48;;;;;;;95.70;37.90;;;;;;;-128.00;-1.00;-1.00;100134;1283;1038074;-30
2023/12/13 00:56:14;;;;;;;72.00;29.50;;;;;;;-128.00;-1.00;-1.00;100195;1288;1002950;-33
2023/12/13 00:58:40;;;;;;;63.20;23.20;;;;;;;-128.00;-1.00;-1.00;100291;1285;1003411;-31
2023/12/13 01:01:06;;;;;;;52.90;19.60;;;;;;;-128.00;-1.00;-1.00;100148;1285;1004634;-31
2023/12/13 01:03:32;;;;;;;59.50;19.30;;;;;;;-128.00;-1.00;-1.00;100205;1287;1013342;-34
2023/12/13 01:05:58;;;;;;;52.90;21.20;;;;;;;-128.00;-1.00;-1.00;100176;1283;1003262;-31
2023/12/13 01:08:24;;;;;;;49.80;19.40;;;;;;;-128.00;-1.00;-1.00;100178;1287;1005234;-30
2023/12/13 01:10:50;;;;;;;62.30;25.30;;;;;;;-128.00;-1.00;-1.00;100227;1285;1003442;-32
2023/12/13 01:13:16;;;;;;;56.00;22.90;;;;;;;-128.00;-1.00;-1.00;100111;1285;1057915;-32
2023/12/13 01:15:41;;;;;;;76.30;26.50;;;;;;;-128.00;-1.00;-1.00;100132;1287;1002544;-37
2023/12/13 01:18:07;;;;;;;62.60;24.10;;;;;;;-128.00;-1.00;-1.00;100293;1287;1003153;-31
2023/12/13 01:20:33;;;;;;;74.70;26.70;;;;;;;-128.00;-1.00;-1.00;100164;1285;1060678;-31
2023/12/13 01:22:59;;;;;;;99.80;36.10;;;;;;;-128.00;-1.00;-1.00;100133;1283;1003059;-30
2023/12/13 01:25:25;;;;;;;110.40;33.70;;;;;;;-128.00;-1.00;-1.00;100104;1285;1004484;-31
2023/12/13 01:27:50;;;;;;;;;;;;;;;-128.00;-1.00;-1.00;100226;1287;1038233;-33
2023/12/13 01:30:16;;;;;;;73.20;25.00;;;;;;;-128.00;-1.00;-1.00;100238;1287;1003747;-31
2023/12/13 01:32:42;;;;;;;78.00;27.20;;;;;;;-128.00;-1.00;-1.00;100254;1283;1003220;-33
2023/12/13 01:35:08;;;;;;;141.50;45.00;;;;;;;-128.00;-1.00;-1.00;100076;1288;1059119;-31
2023/12/13 01:37:34;;;;;;;104.70;32.90;;;;;;;-128.00;-1.00;-1.00;99991;1287;1002745;-32
2023/12/13 01:40:00;;;;;;;90.20;28.80;;;;;;;-128.00;-1.00;-1.00;100215;1282;1004296;-33
2023/12/13 01:42:26;;;;;;;67.20;22.80;;;;;;;-128.00;-1.00;-1.00;100167;1285;1060646;-29
2023/12/13 01:44:51;;;;;;;72.30;26.40;;;;;;;-128.00;-1.00;-1.00;100192;1282;1004586;-29
2023/12/13 01:47:17;;;;;;;88.00;27.00;;;;;;;-128.00;-1.00;-1.00;100261;1285;1004200;-30
2023/12/13 01:49:44;;;;;;;;;;;;;;;-128.00;-1.00;-1.00;100177;1282;1038235;-29
2023/12/13 02:34:08;;;;;;;58.00;24.40;;;;;;;-101.97;19.20;19626.56;101122;1280;1600491;-29
2023/12/13 02:36:34;;;;;;;59.80;22.90;;;;;;;-128.00;-1.00;-1.00;100538;1279;1002771;-32
2023/12/13 02:39:02;;;;;;;;;;;;;;;-128.00;-1.00;-1.00;100709;1280;1002884;-29
2023/12/13 02:41:27;;;;;;;;;;;;;;;-128.00;-1.00;-1.00;100577;1279;1058122;-30
2023/12/13 02:43:53;;;;;;;63.10;20.00;;;;;;;-128.00;-1.00;-1.00;100585;1280;1002739;-31
2023/12/13 02:46:19;;;;;;;47.00;20.70;;;;;;;-128.00;-1.00;-1.00;100680;1279;1003286;-30
2023/12/13 02:48:45;;;;;;;60.00;22.40;;;;;;;-128.00;-1.00;-1.00;100645;1283;1038936;-31
2023/12/13 02:51:11;;;;;;;62.50;21.80;;;;;;;-128.00;-1.00;-1.00;100659;1279;1003188;-32
2023/12/13 02:53:37;;;;;;;58.40;21.30;;;;;;;-128.00;-1.00;-1.00;100620;1280;1003863;-32
2023/12/13 02:56:03;;;;;;;48.10;20.60;;;;;;;-128.00;-1.00;-1.00;100643;1280;1003678;-30
2023/12/13 02:58:28;;;;;;;;;;;;;;;-128.00;-1.00;-1.00;100533;1279;1013443;-30
2023/12/13 03:00:54;;;;;;;54.20;20.40;;;;;;;-128.00;-1.00;-1.00;100580;1279;1004250;-32
2023/12/13 03:03:20;;;;;;;49.00;19.50;;;;;;;-128.00;-1.00;-1.00;100627;1279;1003821;-31
2023/12/13 03:05:46;;;;;;;45.20;18.60;;;;;;;-128.00;-1.00;-1.00;100593;1279;1056440;-32
2023/12/13 03:08:15;;;;;;;43.60;16.90;;;;;;;-128.00;-1.00;-1.00;100497;1279;1003080;-31
2023/12/13 03:10:41;;;;;;;53.60;19.80;;;;;;;-128.00;-1.00;-1.00;100589;1279;1013645;-32
2023/12/13 03:13:07;;;;;;;42.60;17.90;;;;;;;-128.00;-1.00;-1.00;100618;1280;1002156;-31
2023/12/13 03:15:33;;;;;;;54.40;20.20;;;;;;;-128.00;-1.00;-1.00;100697;1279;1003449;-33
2023/12/13 03:17:59;;;;;;;47.20;18.10;;;;;;;-128.00;-1.00;-1.00;100802;1279;1004188;-32
2023/12/13 03:20:25;;;;;;;38.80;16.30;;;;;;;-128.00;-1.00;-1.00;100570;1279;1058164;-31
2023/12/13 03:22:50;;;;;;;49.40;17.20;;;;;;;-128.00;-1.00;-1.00;100674;1279;1003327;-31
2023/12/13 03:25:16;;;;;;;42.10;16.50;;;;;;;-128.00;-1.00;-1.00;100667;1284;1003383;-32
2023/12/13 03:27:43;;;;;;;;;;;;;;;-128.00;-1.00;-1.00;100624;1279;1059247;-31
2023/12/13 03:30:09;;;;;;;41.50;17.30;;;;;;;-128.00;-1.00;-1.00;100793;1279;1004206;-32
2023/12/13 03:32:35;;;;;;;45.60;19.80;;;;;;;-128.00;-1.00;-1.00;100569;1279;1003861;-32
2023/12/13 03:35:01;;;;;;;45.80;20.10;;;;;;;-128.00;-1.00;-1.00;100538;1279;1003641;-31
2023/12/13 03:37:28;;;;;;;49.30;20.40;;;;;;;-128.00;-1.00;-1.00;100562;1283;1002852;-31
2023/12/13 03:39:54;;;;;;;45.20;18.80;;;;;;;-128.00;-1.00;-1.00;100621;1279;1059271;-33
2023/12/13 03:42:20;;;;;;;37.00;16.20;;;;;;;-128.00;-1.00;-1.00;100603;1279;1004724;-32
2023/12/13 03:44:45;;;;;;;46.50;16.30;;;;;;;-128.00;-1.00;-1.00;100585;1280;1003163;-31
2023/12/13 03:47:11;;;;;;;43.90;18.30;;;;;;;-128.00;-1.00;-1.00;100578;1285;1039309;-31
2023/12/13 03:49:37;;;;;;;45.10;21.90;;;;;;;-128.00;-1.00;-1.00;100681;1279;1003727;-30
2023/12/13 03:52:03;;;;;;;52.20;20.90;;;;;;;-128.00;-1.00;-1.00;100645;1279;1002967;-30
2023/12/13 03:54:29;;;;;;;59.50;22.60;;;;;;;-128.00;-1.00;-1.00;100696;1279;1059480;-31
2023/12/13 03:56:55;;;;;;;57.10;22.20;;;;;;;-128.00;-1.00;-1.00;100689;1279;1002920;-30
2023/12/13 03:59:21;;;;;;;60.40;23.50;;;;;;;-128.00;-1.00;-1.00;100577;1279;1004229;-30
2023/12/13 04:01:47;;;;;;;68.50;33.20;;;;;;;-128.00;-1.00;-1.00;100540;1280;1058628;-31
2023/12/13 04:04:13;;;;;;;56.20;24.60;;;;;;;-128.00;-1.00;-1.00;100561;1279;1003176;-32
2023/12/13 04:06:38;;;;;;;51.00;22.10;;;;;;;-128.00;-1.00;-1.00;100627;1279;1004313;-32
2023/12/13 04:09:04;;;;;;;48.00;21.60;;;;;;;-128.00;-1.00;-1.00;100599;1279;1038046;-32
2023/12/13 04:11:30;;;;;;;50.00;20.40;;;;;;;-128.00;-1.00;-1.00;100637;1279;1003864;-31
2023/12/13 04:13:56;;;;;;;45.80;20.90;;;;;;;-128.00;-1.00;-1.00;100590;1279;1003655;-31
2023/12/13 04:16:22;;;;;;;45.40;20.10;;;;;;;-128.00;-1.00;-1.00;100477;1280;1059147;-31
2023/12/13 04:18:48;;;;;;;45.80;18.80;;;;;;;-128.00;-1.00;-1.00;100676;1283;1004443;-31
2023/12/13 04:21:13;;;;;;;59.00;21.10;;;;;;;-128.00;-1.00;-1.00;100589;1283;1003337;-31
2023/12/13 04:23:39;;;;;;;51.90;21.10;;;;;;;-128.00;-1.00;-1.00;100558;1279;1058963;-33
2023/12/13 04:26:05;;;;;;;67.10;21.40;;;;;;;-128.00;-1.00;-1.00;100603;1279;1002727;-30
2023/12/13 04:28:31;;;;;;;63.30;22.50;;;;;;;-128.00;-1.00;-1.00;100508;1283;1003416;-32
2023/12/13 04:30:57;;;;;;;68.00;26.80;;;;;;;-128.00;-1.00;-1.00;100605;1280;1004867;-30
2023/12/13 04:33:23;;;;;;;65.70;21.30;;;;;;;-128.00;-1.00;-1.00;100637;1283;1046321;-30
2023/12/13 04:35:49;;;;;;;85.90;24.80;;;;;;;-128.00;-1.00;-1.00;100653;1280;1003458;-31
2023/12/13 04:38:15;;;;;;;88.40;28.90;;;;;;;-128.00;-1.00;-1.00;100574;1279;1003212;-31
2023/12/13 04:40:41;;;;;;;62.10;24.30;;;;;;;-128.00;-1.00;-1.00;100571;1280;1003489;-31
2023/12/13 04:43:07;;;;;;;64.50;22.10;;;;;;;-128.00;-1.00;-1.00;100597;1279;1038737;-31
2023/12/13 04:45:33;;;;;;;64.30;21.40;;;;;;;-128.00;-1.00;-1.00;100551;1280;1004021;-33
2023/12/13 04:47:58;;;;;;;61.40;23.70;;;;;;;-128.00;-1.00;-1.00;100570;1279;1004017;-31
2023/12/13 04:50:24;;;;;;;63.90;21.00;;;;;;;-128.00;-1.00;-1.00;100577;1279;1059732;-33
2023/12/13 04:52:50;;;;;;;58.70;22.50;;;;;;;-128.00;-1.00;-1.00;100587;1279;1004728;-32
2023/12/13 04:55:16;;;;;;;;;;;;;;;-128.00;-1.00;-1.00;100532;1279;1002644;-31
2023/12/13 04:57:42;;;;;;;63.00;25.50;;;;;;;-128.00;-1.00;-1.00;100587;1279;1003082;-31
2023/12/13 05:00:08;;;;;;;59.00;24.40;;;;;;;-128.00;-1.00;-1.00;100546;1279;1055235;-30
2023/12/13 05:02:34;;;;;;;62.30;22.00;;;;;;;-128.00;-1.00;-1.00;100562;1280;1003277;-31
2023/12/13 05:05:00;;;;;;;56.60;22.50;;;;;;;-128.00;-1.00;-1.00;100573;1280;1003758;-32
2023/12/13 05:07:27;;;;;;;54.40;20.50;;;;;;;-128.00;-1.00;-1.00;100629;1280;1003477;-31
2023/12/13 05:09:55;;;;;;;58.80;23.00;;;;;;;-128.00;-1.00;-1.00;100563;1279;1059842;-31
2023/12/13 05:12:21;;;;;;;57.40;21.60;;;;;;;-128.00;-1.00;-1.00;100566;1279;1004029;-32
2023/12/13 05:14:46;;;;;;;;;;;;;;;-128.00;-1.00;-1.00;100517;1280;1003595;-31
2023/12/13 05:17:12;;;;;;;51.60;19.60;;;;;;;-128.00;-1.00;-1.00;100627;1279;1004062;-30
2023/12/13 05:19:38;;;;;;;44.60;18.30;;;;;;;-128.00;-1.00;-1.00;100663;1280;1046774;-30
2023/12/13 05:22:04;;;;;;;51.50;20.50;;;;;;;-128.00;-1.00;-1.00;100552;1279;1002956;-32
2023/12/13 05:24:31;;;;;;;55.00;21.30;;;;;;;-128.00;-1.00;-1.00;100583;1279;1003165;-31
2023/12/13 05:26:57;;;;;;;50.70;21.10;;;;;;;-128.00;-1.00;-1.00;100544;1283;1003159;-31
2023/12/13 05:29:22;;;;;;;61.90;22.80;;;;;;;-128.00;-1.00;-1.00;100534;1280;1003151;-32
2023/12/13 05:31:48;;;;;;;62.90;23.80;;;;;;;-128.00;-1.00;-1.00;100633;1280;1045722;-30
2023/12/13 05:34:14;;;;;;;84.10;34.50;;;;;;;-128.00;-1.00;-1.00;100645;1280;1004354;-31
2023/12/13 05:36:40;;;;;;;198.40;81.70;;;;;;;-128.00;-1.00;-1.00;100621;1279;1002870;-30
2023/12/13 05:39:07;;;;;;;113.80;49.40;;;;;;;-128.00;-1.00;-1.00;100585;1279;1012175;-30
2023/12/13 05:41:33;;;;;;;96.20;39.70;;;;;;;-128.00;-1.00;-1.00;100619;1279;1003173;-29
2023/12/13 05:43:58;;;;;;;83.70;27.40;;;;;;;-128.00;-1.00;-1.00;100720;1279;1003505;-29
2023/12/13 05:46:24;;;;;;;75.20;26.60;;;;;;;-128.00;-1.00;-1.00;100732;1279;1003099;-30
2023/12/13 05:48:51;;;;;;;69.00;27.90;;;;;;;-128.00;-1.00;-1.00;100522;1279;1059211;-30
2023/12/13 05:51:16;;;;;;;74.70;27.50;;;;;;;-128.00;-1.00;-1.00;100551;1279;1003175;-33
2023/12/13 05:53:43;;;;;;;65.20;26.40;;;;;;;-128.00;-1.00;-1.00;100609;1279;1003943;-30
2023/12/13 05:56:10;;;;;;;65.90;26.90;;;;;;;-128.00;-1.00;-1.00;100621;1279;1004561;-31
2023/12/13 05:58:36;;;;;;;66.60;27.40;;;;;;;-128.00;-1.00;-1.00;100555;1279;1003060;-30
2023/12/13 06:01:03;;;;;;;67.40;25.80;;;;;;;-128.00;-1.00;-1.00;100539;1280;1003144;-31
2023/12/13 06:03:29;;;;;;;63.60;22.90;;;;;;;-128.00;-1.00;-1.00;100525;1279;1003247;-31
2023/12/13 06:05:55;;;;;;;63.30;23.40;;;;;;;-128.00;-1.00;-1.00;100570;1283;1002739;-35
2023/12/13 06:08:21;;;;;;;66.90;24.50;;;;;;;-128.00;-1.00;-1.00;100613;1283;1003721;-34
2023/12/13 06:10:47;;;;;;;55.10;24.90;;;;;;;-128.00;-1.00;-1.00;100492;1280;1003103;-32
2023/12/13 06:13:13;;;;;;;61.70;25.40;;;;;;;-128.00;-1.00;-1.00;100623;1279;1003094;-33
2023/12/13 06:15:39;;;;;;;55.90;24.80;;;;;;;-128.00;-1.00;-1.00;100531;1279;1058100;-32
2023/12/13 06:18:04;;;;;;;67.20;25.60;;;;;;;-128.00;-1.00;-1.00;100487;1279;1004852;-31
2023/12/13 06:20:30;;;;;;;56.50;24.70;;;;;;;-128.00;-1.00;-1.00;100495;1283;1003344;-31
2023/12/13 06:22:56;;;;;;;51.20;22.80;;;;;;;-128.00;-1.00;-1.00;100739;1279;1002866;-33
2023/12/13 06:25:22;;;;;;;49.90;23.20;;;;;;;-128.00;-1.00;-1.00;100471;1280;1056162;-33
2023/12/13 06:27:49;;;;;;;64.10;25.50;;;;;;;-128.00;-1.00;-1.00;100623;1279;1003437;-31
2023/12/13 06:30:15;;;;;;;63.10;27.00;;;;;;;-128.00;-1.00;-1.00;100545;1283;1003158;-30
2023/12/13 06:32:40;;;;;;;61.40;24.80;;;;;;;-128.00;-1.00;-1.00;100534;1279;1003158;-31
2023/12/13 06:35:06;;;;;;;67.90;26.00;;;;;;;-128.00;-1.00;-1.00;100521;1280;1002675;-32
2023/12/13 06:37:32;;;;;;;64.40;27.30;;;;;;;-128.00;-1.00;-1.00;100493;1279;1056424;-33
2023/12/13 06:39:59;;;;;;;58.50;24.50;;;;;;;-128.00;-1.00;-1.00;100613;1280;1003085;-32
2023/12/13 06:42:25;;;;;;;62.00;25.10;;;;;;;-128.00;-1.00;-1.00;100565;1279;1003403;-32
2023/12/13 06:44:51;;;;;;;59.00;26.10;;;;;;;-128.00;-1.00;-1.00;100716;1279;1003656;-31
2023/12/13 06:47:17;;;;;;;64.20;26.70;;;;;;;-128.00;-1.00;-1.00;100568;1279;1003738;-30
2023/12/13 06:49:42;;;;;;;68.60;27.60;;;;;;;-128.00;-1.00;-1.00;100545;1279;1056277;-31
2023/12/13 06:52:08;;;;;;;59.90;25.20;;;;;;;-128.00;-1.00;-1.00;100528;1279;1003085;-31
2023/12/13 06:54:34;;;;;;;;;;;;;;;-128.00;-1.00;-1.00;100549;1284;1002771;-32
2023/12/13 06:57:01;;;;;;;67.50;28.10;;;;;;;-128.00;-1.00;-1.00;100551;1283;1004198;-32
2023/12/13 06:59:27;;;;;;;70.30;35.00;;;;;;;-128.00;-1.00;-1.00;100496;1279;1060462;-32
2023/12/13 07:01:52;;;;;;;61.30;31.00;;;;;;;-128.00;-1.00;-1.00;100542;1279;1003017;-35
2023/12/13 07:04:18;;;;;;;49.80;23.90;;;;;;;-128.00;-1.00;-1.00;100487;1279;1002664;-31
2023/12/13 07:06:44;;;;;;;59.40;26.60;;;;;;;-128.00;-1.00;-1.00;100651;1279;1039411;-34
2023/12/13 07:09:10;;;;;;;59.60;31.90;;;;;;;-128.00;-1.00;-1.00;100565;1279;1003413;-30
2023/12/13 07:11:36;;;;;;;57.10;30.50;;;;;;;-128.00;-1.00;-1.00;100590;1279;1003147;-32
2023/12/13 07:14:03;;;;;;;68.40;32.60;;;;;;;-128.00;-1.00;-1.00;100560;1280;1003978;-31
2023/12/13 07:16:28;;;;;;;61.70;27.70;;;;;;;-128.00;-1.00;-1.00;100553;1279;1003866;-31
2023/12/13 07:18:54;;;;;;;63.10;28.10;;;;;;;-128.00;-1.00;-1.00;100539;1279;1038130;-30
2023/12/13 07:21:20;;;;;;;66.60;30.20;;;;;;;-128.00;-1.00;-1.00;100618;1279;1003194;-32
2023/12/13 07:23:46;;;;;;;86.70;35.50;;;;;;;-128.00;-1.00;-1.00;100582;1279;1002828;-31
2023/12/13 07:26:12;;;;;;;99.70;35.90;;;;;;;-128.00;-1.00;-1.00;100574;1280;1058215;-32
2023/12/13 07:28:38;;;;;;;69.00;28.30;;;;;;;-128.00;-1.00;-1.00;100541;1279;1003566;-32
2023/12/13 07:31:04;;;;;;;56.70;29.00;;;;;;;-128.00;-1.00;-1.00;100614;1280;1003358;-30
2023/12/13 07:33:34;;;;;;;58.20;24.90;;;;;;;-128.00;-1.00;-1.00;100611;1279;1060413;-32
2023/12/13 07:36:00;;;;;;;55.70;25.00;;;;;;;-128.00;-1.00;-1.00;100532;1280;1056522;-34
2023/12/13 07:38:26;;;;;;;51.70;24.00;;;;;;;-128.00;-1.00;-1.00;100454;1279;1002568;-34
2023/12/13 07:40:54;;;;;;;64.50;28.40;;;;;;;-128.00;-1.00;-1.00;100530;1280;1002609;-30
2023/12/13 07:43:20;;;;;;;61.60;27.40;;;;;;;-128.00;-1.00;-1.00;100677;1283;1002618;-30
2023/12/13 07:45:51;;;;;;;;;;;;;;;-128.00;-1.00;-1.00;100604;1279;1002581;-32
2023/12/13 07:48:20;;;;;;;50.90;22.40;;;;;;;-128.00;-1.00;-1.00;100563;1280;1059609;-31
2023/12/13 07:50:46;;;;;;;53.90;24.00;;;;;;;-128.00;-1.00;-1.00;100531;1279;1055252;-32
2023/12/13 07:53:12;;;;;;;59.60;24.00;;;;;;;-128.00;-1.00;-1.00;100473;1279;1003328;-32
2023/12/13 07:55:38;;;;;;;54.70;25.10;;;;;;;-128.00;-1.00;-1.00;100537;1280;1004166;-31
2023/12/13 07:58:04;;;;;;;50.10;24.60;;;;;;;-128.00;-1.00;-1.00;100609;1279;1003787;-31
2023/12/13 08:00:30;;;;;;;53.10;25.80;;;;;;;-128.00;-1.00;-1.00;100647;1279;1059658;-31
2023/12/13 08:02:56;;;;;;;66.40;30.20;;;;;;;-128.00;-1.00;-1.00;100519;1280;1003145;-33
2023/12/13 08:05:23;;;;;;;61.60;28.80;;;;;;;-128.00;-1.00;-1.00;100562;1279;1003356;-31
2023/12/13 08:07:48;;;;;;;60.10;26.90;;;;;;;-128.00;-1.00;-1.00;100634;1279;1038152;-31
2023/12/13 08:10:15;;;;;;;61.10;26.60;;;;;;;-128.00;-1.00;-1.00;100697;1280;1003326;-30
2023/12/13 08:12:42;;;;;;;50.00;23.10;;;;;;;-128.00;-1.00;-1.00;100630;1280;1005230;-31
2023/12/13 08:15:09;;;;;;;59.00;25.10;;;;;;;-128.00;-1.00;-1.00;100697;1280;1003749;-34
2023/12/13 08:17:35;;;;;;;64.70;27.10;;;;;;;-128.00;-1.00;-1.00;100513;1284;1003101;-32
2023/12/13 08:20:01;;;;;;;55.40;26.80;;;;;;;-128.00;-1.00;-1.00;100565;1279;1003411;-32
2023/12/13 08:22:27;;;;;;;69.80;30.10;;;;;;;-128.00;-1.00;-1.00;100529;1279;1003224;-31
2023/12/13 08:24:53;;;;;;;55.10;25.50;;;;;;;-128.00;-1.00;-1.00;100643;1279;1003423;-32
2023/12/13 08:27:19;;;;;;;48.20;21.70;;;;;;;-128.00;-1.00;-1.00;100623;1279;1055231;-31
2023/12/13 08:29:44;;;;;;;;;;;;;;;-128.00;-1.00;-1.00;100598;1279;1003519;-31
2023/12/13 08:32:10;;;;;;;47.10;21.70;;;;;;;-128.00;-1.00;-1.00;100575;1280;1003059;-31
2023/12/13 08:34:36;;;;;;;49.50;22.20;;;;;;;-128.00;-1.00;-1.00;100538;1279;1046400;-32
2023/12/13 08:37:02;;;;;;;55.40;23.50;;;;;;;-128.00;-1.00;-1.00;100717;1279;1002239;-33
2023/12/13 08:39:28;;;;;;;55.70;23.60;;;;;;;-128.00;-1.00;-1.00;100642;1284;1003043;-33
2023/12/13 08:41:54;;;;;;;49.90;23.30;;;;;;;-128.00;-1.00;-1.00;100564;1279;1003700;-30
2023/12/13 08:44:21;;;;;;;53.90;24.60;;;;;;;-128.00;-1.00;-1.00;100569;1280;1038257;-32
2023/12/13 08:46:47;;;;;;;61.70;29.80;;;;;;;-128.00;-1.00;-1.00;100611;1279;1004200;-33
2023/12/13 08:49:13;;;;;;;47.50;24.60;;;;;;;-128.00;-1.00;-1.00;100613;1279;1003175;-32
2023/12/13 08:51:39;;;;;;;43.60;21.80;;;;;;;-128.00;-1.00;-1.00;100533;1280;1003401;-33
2023/12/13 08:54:04;;;;;;;45.20;21.70;;;;;;;-128.00;-1.00;-1.00;100590;1283;1012629;-31
2023/12/13 08:56:31;;;;;;;48.50;19.90;;;;;;;-128.00;-1.00;-1.00;100575;1279;1004284;-31
2023/12/13 08:58:57;;;;;;;52.60;22.40;;;;;;;-128.00;-1.00;-1.00;100669;1284;1003162;-31
2023/12/13 09:01:23;;;;;;;;;;;;;;;-128.00;-1.00;-1.00;100577;1279;1004127;-32
2023/12/13 09:03:50;;;;;;;53.20;24.10;;;;;;;-128.00;-1.00;-1.00;100573;1280;1002794;-35
2023/12/13 09:06:16;;;;;;;47.40;21.00;;;;;;;-128.00;-1.00;-1.00;100526;1279;1013380;-31
2023/12/13 09:08:42;;;;;;;44.60;19.40;;;;;;;-128.00;-1.00;-1.00;100581;1280;1002485;-31
2023/12/13 09:11:08;;;;;;;44.00;19.90;;;;;;;-128.00;-1.00;-1.00;100513;1279;1002641;-33
2023/12/13 09:13:34;;;;;;;57.90;21.40;;;;;;;-128.00;-1.00;-1.00;100594;1280;1002911;-31
2023/12/13 09:16:00;;;;;;;55.20;23.00;;;;;;;-128.00;-1.00;-1.00;100520;1279;1003026;-31
2023/12/13 09:18:26;;;;;;;51.50;21.60;;;;;;;-128.00;-1.00;-1.00;100579;1280;1013493;-32
2023/12/13 09:20:52;;;;;;;52.80;21.20;;;;;;;-128.00;-1.00;-1.00;100604;1279;1003852;-31
2023/12/13 09:23:22;;;;;;;54.20;22.20;;;;;;;-128.00;-1.00;-1.00;100580;1279;1002765;-32
2023/12/13 09:25:48;;;;;;;60.20;24.70;;;;;;;-128.00;-1.00;-1.00;100644;1279;1055696;-32
2023/12/13 09:28:13;;;;;;;71.90;28.50;;;;;;;-128.00;-1.00;-1.00;100473;1279;1003250;-31
2023/12/13 09:30:39;;;;;;;101.50;33.20;;;;;;;-128.00;-1.00;-1.00;100664;1280;1003553;-34
2023/12/13 09:33:05;;;;;;;89.00;31.60;;;;;;;-128.00;-1.00;-1.00;100643;1279;1046710;-31
2023/12/13 09:35:32;;;;;;;94.90;30.40;;;;;;;-128.00;-1.00;-1.00;100601;1279;1003035;-30
2023/12/13 09:37:58;;;;;;;81.30;26.50;;;;;;;-128.00;-1.00;-1.00;100682;1279;1004598;-33
2023/12/13 09:40:24;;;;;;;92.20;30.50;;;;;;;-128.00;-1.00;-1.00;100597;1280;1003650;-33
2023/12/13 09:42:49;;;;;;;94.10;31.30;;;;;;;-128.00;-1.00;-1.00;100703;1280;1003659;-32
2023/12/13 09:45:22;;;;;;;87.40;30.80;;;;;;;-128.00;-1.00;-1.00;100638;1280;1047699;-32
2023/12/13 09:47:49;;;;;;;72.70;26.30;;;;;;;-128.00;-1.00;-1.00;100331;1286;1060600;-32
2023/12/13 09:50:15;;;;;;;46.70;18.80;;;;;;;-128.00;-1.00;-1.00;100675;1279;1004256;-33
2023/12/13 09:52:42;;;;;;;48.70;20.10;;;;;;;-128.00;-1.00;-1.00;100531;1284;1003365;-32
2023/12/13 09:55:08;;;;;;;72.10;25.30;;;;;;;-128.00;-1.00;-1.00;100619;1280;1002610;-31
2023/12/13 09:57:34;;;;;;;89.50;31.70;;;;;;;-128.00;-1.00;-1.00;100683;1280;1005161;-32
2023/12/13 09:59:59;;;;;;;51.30;19.70;;;;;;;-128.00;-1.00;-1.00;100609;1279;1002814;-30
2023/12/13 10:02:26;;;;;;;;;;;;;;;-128.00;-1.00;-1.00;100645;1280;1055268;-30
2023/12/13 10:04:52;;;;;;;55.90;21.50;;;;;;;-128.00;-1.00;-1.00;100545;1280;1004344;-32
2023/12/13 10:07:17;;;;;;;;;;;;;;;-128.00;-1.00;-1.00;100624;1284;1003994;-35
2023/12/13 10:09:44;;;;;;;60.30;23.30;;;;;;;-128.00;-1.00;-1.00;100635;1284;1003059;-31
2023/12/13 10:12:12;;;;;;;50.60;21.40;;;;;;;-128.00;-1.00;-1.00;100598;1280;1003415;-32
2023/12/13 10:14:38;;;;;;;54.30;20.90;;;;;;;-128.00;-1.00;-1.00;100526;1280;1003293;-32
2023/12/13 10:17:04;;;;;;;45.30;17.80;;;;;;;-128.00;-1.00;-1.00;100533;1279;1003453;-30
2023/12/13 10:19:32;;;;;;;48.60;18.70;;;;;;;-128.00;-1.00;-1.00;100590;1280;1002841;-30
2023/12/13 10:21:58;;;;;;;49.30;22.00;;;;;;;-128.00;-1.00;-1.00;100587;1280;1002928;-31
2023/12/13 10:24:25;;;;;;;42.70;18.90;;;;;;;-128.00;-1.00;-1.00;100588;1285;1003550;-32
2023/12/13 10:26:50;;;;;;;45.90;21.30;;;;;;;-128.00;-1.00;-1.00;100621;1280;1003605;-32
2023/12/13 10:29:18;;;;;;;;;;;;;;;-128.00;-1.00;-1.00;100603;1280;1003087;-31
2023/12/13 10:31:45;;;;;;;62.60;23.70;;;;;;;-128.00;-1.00;-1.00;100550;1279;1003145;-31
2023/12/13 10:34:11;;;;;;;70.90;27.30;;;;;;;-128.00;-1.00;-1.00;100520;1279;1002769;-32
2023/12/13 10:36:37;;;;;;;54.00;21.90;;;;;;;-128.00;-1.00;-1.00;100533;1280;1003225;-33
2023/12/13 10:39:05;;;;;;;49.90;19.90;;;;;;;-128.00;-1.00;-1.00;100608;1279;1004580;-32
2023/12/13 10:41:31;;;;;;;36.20;16.50;;;;;;;-128.00;-1.00;-1.00;100557;1280;1060525;-33
2023/12/13 10:43:57;;;;;;;;;;;;;;;-128.00;-1.00;-1.00;100556;1280;1002625;-34
2023/12/13 10:46:27;;;;;;;44.70;19.40;;;;;;;-128.00;-1.00;-1.00;100511;1280;1003575;-34
2023/12/13 10:48:54;;;;;;;40.30;19.00;;;;;;;-128.00;-1.00;-1.00;100517;1280;1013891;-33
2023/12/13 10:51:20;;;;;;;49.80;20.90;;;;;;;-128.00;-1.00;-1.00;100690;1284;1003541;-32
2023/12/13 10:53:45;;;;;;;58.70;23.80;;;;;;;-128.00;-1.00;-1.00;100588;1280;1003254;-33
2023/12/13 10:56:11;;;;;;;;;;;;;;;-128.00;-1.00;-1.00;100635;1279;1003772;-33
2023/12/13 10:58:37;;;;;;;48.50;19.00;;;;;;;-128.00;-1.00;-1.00;100569;1280;1059016;-32
2023/12/13 11:01:03;;;;;;;;;;;;;;;-128.00;-1.00;-1.00;100774;1280;1003204;-31
2023/12/13 11:14:26;;;;;;;42.30;19.20;;;;;;;-128.00;-1.00;-1.00;100503;1285;1058542;-32
2023/12/13 11:16:52;;;;;;;50.00;20.20;;;;;;;-128.00;-1.00;-1.00;100542;1279;1013637;-32
2023/12/13 11:19:19;;;;;;;;;;;;;;;-128.00;-1.00;-1.00;100578;1280;1003651;-45
2023/12/13 11:21:49;;;;;;;50.10;21.70;;;;;;;-128.00;-1.00;-1.00;100597;1279;1003624;-33
2023/12/13 11:24:23;;;;;;;58.60;28.80;;;;;;;-128.00;-1.00;-1.00;100590;1280;1060542;-31
2023/12/13 11:26:50;;;;;;;88.80;39.00;;;;;;;-128.00;-1.00;-1.00;100584;1279;1056440;-31
2023/12/13 11:29:29;;;;;;;50.70;22.10;;;;;;;-128.00;-1.00;-1.00;100607;1284;1002994;-32
2023/12/13 11:31:57;;;;;;;42.80;18.10;;;;;;;-128.00;-1.00;-1.00;100563;1279;1013451;-31
2023/12/13 11:34:36;;;;;;;48.10;19.90;;;;;;;-128.00;-1.00;-1.00;100586;1284;1038556;-31
2023/12/13 11:37:06;;;;;;;42.40;19.90;;;;;;;-128.00;-1.00;-1.00;100613;1280;1046992;-32
2023/12/13 11:39:32;;;;;;;48.60;22.40;;;;;;;-128.00;-1.00;-1.00;100649;1280;1060065;-32
2023/12/13 11:41:58;;;;;;;53.60;23.70;;;;;;;-128.00;-1.00;-1.00;100630;1279;1002925;-31
2023/12/13 11:44:31;;;;;;;48.50;21.50;;;;;;;-128.00;-1.00;-1.00;100575;1279;1003522;-31
2023/12/13 11:46:59;;;;;;;38.80;17.70;;;;;;;-128.00;-1.00;-1.00;100563;1285;1012234;-33
2023/12/13 11:49:26;;;;;;;42.40;18.90;;;;;;;-128.00;-1.00;-1.00;100657;1281;1003850;-33
2023/12/13 11:51:53;;;;;;;50.00;21.00;;;;;;;-128.00;-1.00;-1.00;100505;1280;1005444;-33
2023/12/13 11:54:19;;;;;;;44.60;21.10;;;;;;;-128.00;-1.00;-1.00;100696;1280;1003483;-31